createdAt,value
2023-03-22T00:00:19.770Z,4.88
2023-03-22T00:05:18.649Z,4.75
2023-03-22T00:10:17.816Z,5.57
2023-03-22T00:15:16.682Z,5.10
2023-03-22T00:20:15.563Z,5.60
2023-03-22T00:25:14.296Z,5.53
2023-03-22T00:30:13.459Z,6.40
2023-03-22T00:35:12.607Z,5.35
2023-03-22T00:40:13.618Z,5.63
2023-03-22T00:45:13.758Z,5.03
2023-03-22T00:50:12.504Z,5.40
2023-03-22T00:55:11.228Z,4.82
2023-03-22T01:00:16.213Z,3.85
2023-03-22T01:05:17.804Z,4.95
2023-03-22T01:10:18.299Z,5.15
2023-03-22T01:15:17.282Z,4.85
2023-03-22T01:20:16.418Z,4.18
2023-03-22T01:25:15.416Z,4.15
2023-03-22T01:30:14.444Z,4.72
2023-03-22T01:35:13.152Z,4.65
2023-03-22T01:40:16.235Z,4.65
2023-03-22T01:45:29.535Z,6.05
2023-03-22T01:50:30.254Z,4.47
2023-03-22T01:55:29.260Z,4.95
2023-03-22T02:00:52.889Z,5.75
2023-03-22T02:06:01.943Z,5.03
2023-03-22T02:11:04.481Z,5.60
2023-03-22T02:16:37.208Z,5.10
2023-03-22T02:22:09.939Z,5.63
2023-03-22T02:27:30.660Z,5.65
2023-03-22T02:32:32.506Z,6.15
2023-03-22T02:37:40.375Z,6.00
2023-03-22T02:42:45.394Z,5.60
2023-03-22T02:47:56.367Z,5.72
2023-03-22T02:52:59.339Z,6.00
2023-03-22T02:58:14.337Z,5.30
2023-03-22T03:03:18.270Z,5.45
2023-03-22T03:08:18.207Z,6.03
2023-03-22T03:13:19.158Z,6.07
2023-03-22T03:18:32.452Z,5.15
2023-03-22T03:23:49.254Z,5.90
2023-03-22T03:28:51.796Z,4.82
2023-03-22T03:34:09.009Z,5.75
2023-03-22T03:39:11.581Z,4.78
2023-03-22T03:44:11.570Z,4.63
2023-03-22T03:49:12.868Z,3.85
2023-03-22T03:54:11.840Z,4.05
2023-03-22T03:59:11.098Z,3.55
2023-03-22T04:04:10.209Z,3.72
2023-03-22T04:09:08.981Z,3.50
2023-03-22T04:14:12.524Z,3.38
2023-03-22T04:19:12.296Z,3.55
2023-03-22T04:24:12.149Z,3.25
2023-03-22T04:29:14.830Z,2.90
2023-03-22T04:34:20.536Z,3.05
2023-03-22T04:39:23.142Z,4.28
2023-03-22T04:44:32.796Z,4.10
2023-03-22T04:49:32.070Z,4.18
2023-03-22T04:54:31.098Z,3.90
2023-03-22T04:59:30.230Z,3.22
2023-03-22T05:04:31.494Z,3.28
2023-03-22T05:09:36.808Z,3.63
2023-03-22T05:14:36.020Z,4.05
2023-03-22T05:19:35.787Z,4.25
2023-03-22T05:24:34.702Z,4.10
2023-03-22T05:29:37.015Z,2.90
2023-03-22T05:40:09.789Z,3.53
2023-03-22T05:45:12.757Z,3.30
2023-03-22T05:50:16.386Z,3.50
2023-03-22T05:55:19.674Z,3.53
2023-03-22T06:00:21.891Z,3.25
2023-03-22T06:05:43.919Z,4.20
2023-03-22T06:10:43.073Z,4.30
2023-03-22T06:15:42.627Z,3.47
2023-03-22T06:20:45.694Z,4.75
2023-03-22T06:25:52.033Z,4.35
2023-03-22T06:30:51.398Z,4.35
2023-03-22T06:35:50.335Z,4.20
2023-03-22T06:40:58.161Z,4.00
2023-03-22T06:45:57.574Z,3.83
2023-03-22T06:51:03.462Z,4.07
2023-03-22T06:56:07.330Z,4.22
2023-03-22T07:01:21.375Z,4.63
2023-03-22T07:06:20.641Z,4.88
2023-03-22T07:11:22.330Z,4.63
2023-03-22T07:16:28.922Z,3.80
2023-03-22T07:21:30.939Z,4.28
2023-03-22T07:26:33.568Z,5.68
2023-03-22T07:31:38.020Z,5.28
2023-03-22T07:36:41.210Z,5.25
2023-03-22T07:41:42.947Z,5.63
2023-03-22T07:46:48.023Z,6.28
2023-03-22T07:51:57.674Z,5.63
2023-03-22T07:56:56.564Z,5.55
2023-03-22T08:01:55.720Z,5.30
2023-03-22T08:07:02.583Z,4.88
2023-03-22T08:12:02.398Z,4.63
2023-03-22T08:17:02.221Z,4.53
2023-03-22T08:22:01.831Z,2.67
2023-03-22T08:27:23.667Z,2.25
2023-03-22T08:32:22.973Z,2.30
2023-03-22T08:37:21.898Z,2.13
2023-03-22T08:42:21.462Z,1.90
2023-03-22T08:47:20.287Z,2.10
2023-03-22T08:52:23.756Z,1.77
2023-03-22T08:57:38.741Z,1.60
2023-03-22T09:02:57.389Z,1.48
2023-03-22T09:07:59.004Z,1.45
2023-03-22T09:13:07.423Z,1.55
2023-03-22T09:18:07.323Z,1.25
2023-03-22T09:23:07.067Z,1.40
2023-03-22T09:28:06.953Z,1.23
2023-03-22T09:33:09.480Z,1.20
2023-03-22T09:38:12.335Z,1.20
2023-03-22T09:43:14.018Z,1.00
2023-03-22T09:48:27.318Z,1.27
2023-03-22T09:53:29.524Z,1.10
2023-03-22T09:58:53.291Z,0.85
2023-03-22T10:04:10.838Z,1.30
2023-03-22T10:09:27.652Z,1.10
2023-03-22T10:15:01.985Z,0.90
2023-03-22T10:20:09.566Z,0.98
2023-03-22T10:25:09.712Z,0.80
2023-03-22T10:30:18.231Z,0.90
2023-03-22T10:35:19.806Z,0.68
2023-03-22T10:40:27.198Z,0.50
2023-03-22T10:45:27.313Z,0.95
2023-03-22T10:50:30.726Z,0.70
2023-03-22T10:55:30.008Z,0.60
2023-03-22T11:00:29.058Z,0.85
2023-03-22T11:05:29.949Z,0.70
2023-03-22T11:10:32.857Z,1.17
2023-03-22T11:15:33.729Z,1.20
2023-03-22T11:20:34.800Z,0.68
2023-03-22T11:25:36.965Z,0.60
2023-03-22T11:30:36.286Z,0.70
2023-03-22T11:35:39.518Z,1.10
2023-03-22T11:40:53.775Z,0.70
2023-03-22T11:45:58.425Z,0.80
2023-03-22T11:51:15.575Z,0.80
2023-03-22T11:56:21.991Z,0.80
2023-03-22T12:01:33.033Z,0.60
2023-03-22T12:06:39.337Z,0.60
2023-03-22T12:11:41.518Z,0.63
2023-03-22T12:16:51.029Z,0.50
2023-03-22T12:21:51.719Z,0.77
2023-03-22T12:26:53.000Z,0.60
2023-03-22T12:32:07.129Z,0.75
2023-03-22T12:37:09.270Z,0.60
2023-03-22T12:42:47.898Z,0.57
2023-03-22T12:48:01.158Z,1.25
2023-03-22T12:53:02.399Z,1.17
2023-03-22T12:58:01.788Z,1.00
2023-03-22T13:03:20.081Z,0.70
2023-03-22T13:08:22.883Z,0.80
2023-03-22T13:13:21.936Z,0.70
2023-03-22T13:18:35.815Z,0.80
2023-03-22T13:23:34.595Z,0.90
2023-03-22T13:28:40.828Z,1.08
2023-03-22T13:33:40.004Z,0.70
2023-03-22T13:38:42.489Z,0.80
2023-03-22T13:43:50.417Z,0.70
2023-03-22T13:48:52.527Z,0.80
2023-03-22T13:54:16.501Z,0.80
2023-03-22T13:59:27.859Z,1.00
2023-03-22T14:04:43.273Z,1.00
2023-03-22T14:10:20.614Z,0.77
2023-03-22T14:15:25.362Z,0.90
2023-03-22T14:20:30.462Z,0.73
